首页
METAR-TAF:

METAR-TAF

机场 :

珀斯, 澳大利亚

珀斯機場

纬度: 31-56S, 经度: 115-57E, 海拔: 20米

当前天气观测

该预报发布于17分钟前的13:00 UTC
风速12节,风向西南
温度 22°C
湿度 83%
气压 1008 hPa
能见度10公里或以上
多云层高于1300英尺

METAR: YPPH 171300Z 23012KT 9999 BKN013 22/19 Q1008 INTER 1500/1600 6000 -DZ BKN010

时间: 21:17 (13:17 UTC)

预报

该预报发布于2小时和19分钟前的10:58 UTC
预报有效从17日的 12点(UTC)到 18日的 18点(UTC)
风速12节,风向南转西南
能见度10公里或以上
多云层高于1200英尺
小毛毛雨
从 18日的 0000点(UTC)
风速10节,风向
能见度10公里或以上
多云层高于2000英尺
从 18日的 0200点(UTC)
风速12节,风向
能见度10公里或以上
散云层高于3500英尺
从 18日的 1400点(UTC)
风速12节,风向东南
能見度: 6000
多云层高于1000英尺
小毛毛雨

TAF: YPPH 171058Z 1712/1818 21012KT 9999 -DZ BKN012 FM180000 17010KT 9999 BKN020 FM180200 17012KT 9999 SCT035 FM181400 13012KT CAVOK INTER 1715/1724 6000 -DZ BKN010

超过4000个机场的气象观测和天气预报(METAR&TAF报告)。

可查询的气象台以黄色和红色小点在地图上表示。

将鼠标移到小点上方,可查看气象台名称。

然后点击查看天气观测和预报。

如需切换地图:点击带黑十字的绿色按钮放大地图;点击带横线的绿色按钮缩小地图;或者点击绿色箭头查看邻近地区的地图。


METAR-TAF: